createdAt,value
2018-07-30T00:00:37.653Z,21.98
2018-07-30T00:01:37.639Z,22.04
2018-07-30T00:02:37.622Z,21.97
2018-07-30T00:03:37.608Z,22.09
2018-07-30T00:04:37.594Z,22.09
2018-07-30T00:05:37.580Z,22.10
2018-07-30T00:06:37.565Z,22.09
2018-07-30T00:07:37.552Z,22.02
2018-07-30T00:08:37.537Z,22.07
2018-07-30T00:09:37.522Z,22.07
2018-07-30T00:10:37.506Z,22.12
2018-07-30T00:11:37.494Z,22.06
2018-07-30T00:12:37.479Z,22.02
2018-07-30T00:13:37.464Z,21.99
2018-07-30T00:14:37.449Z,21.95
2018-07-30T00:15:37.437Z,21.92
2018-07-30T00:16:37.419Z,21.94
2018-07-30T00:17:37.406Z,21.78
2018-07-30T00:18:37.390Z,21.81
2018-07-30T00:19:37.375Z,21.82
2018-07-30T00:20:37.362Z,21.78
2018-07-30T00:21:37.347Z,21.79
2018-07-30T00:22:37.332Z,21.74
2018-07-30T00:23:37.321Z,21.74
2018-07-30T00:24:37.302Z,21.74
2018-07-30T00:25:37.288Z,21.76
2018-07-30T00:26:37.273Z,21.64
2018-07-30T00:27:37.259Z,21.64
2018-07-30T00:28:37.245Z,21.67
2018-07-30T00:29:37.231Z,21.60
2018-07-30T00:30:37.215Z,21.60
2018-07-30T00:31:37.205Z,21.66
2018-07-30T00:32:37.187Z,21.60
2018-07-30T00:33:37.173Z,21.56
2018-07-30T00:34:37.161Z,21.59
2018-07-30T00:35:37.142Z,21.61
2018-07-30T00:36:37.127Z,21.50
2018-07-30T00:37:37.112Z,21.46
2018-07-30T00:38:37.096Z,21.41
2018-07-30T00:39:37.083Z,21.39
2018-07-30T00:40:37.069Z,21.34
2018-07-30T00:41:37.055Z,21.29
2018-07-30T00:42:37.038Z,21.34
2018-07-30T00:43:37.024Z,21.32
2018-07-30T00:44:37.011Z,21.26
2018-07-30T00:45:36.994Z,21.36
2018-07-30T00:46:36.978Z,21.35
2018-07-30T00:47:36.965Z,21.23
2018-07-30T00:48:36.949Z,21.34
2018-07-30T00:49:36.935Z,21.24
2018-07-30T00:50:36.919Z,21.17
2018-07-30T00:51:36.906Z,21.13
2018-07-30T00:52:36.892Z,21.09
2018-07-30T00:53:36.880Z,21.05
2018-07-30T00:54:36.862Z,21.05
2018-07-30T00:55:36.847Z,20.99
2018-07-30T00:56:36.831Z,21.02
2018-07-30T00:57:36.820Z,20.89
2018-07-30T00:58:36.801Z,20.89
2018-07-30T00:59:36.787Z,20.81
2018-07-30T01:00:36.772Z,20.81
2018-07-30T01:01:36.757Z,20.86
2018-07-30T01:02:36.742Z,20.79
2018-07-30T01:03:36.726Z,20.79
2018-07-30T01:04:36.712Z,20.83
2018-07-30T01:05:37.448Z,20.86
2018-07-30T01:06:36.681Z,20.81
2018-07-30T01:07:36.704Z,20.83
2018-07-30T01:08:36.658Z,20.79
2018-07-30T01:09:36.637Z,20.83
2018-07-30T01:10:37.372Z,20.83
2018-07-30T01:11:36.606Z,20.83
2018-07-30T01:12:36.591Z,20.81
2018-07-30T01:13:36.577Z,20.81
2018-07-30T01:14:36.561Z,20.83
2018-07-30T01:15:36.546Z,20.68
2018-07-30T01:16:36.531Z,20.68
2018-07-30T01:17:36.516Z,20.72
2018-07-30T01:18:36.500Z,20.74
2018-07-30T01:19:36.485Z,20.69
2018-07-30T01:20:36.470Z,20.72
2018-07-30T01:21:36.539Z,20.59
2018-07-30T01:22:36.440Z,20.65
2018-07-30T01:23:36.425Z,20.54
2018-07-30T01:24:36.410Z,20.51
2018-07-30T01:25:36.393Z,20.58
2018-07-30T01:26:36.378Z,20.53
2018-07-30T01:27:36.363Z,20.54
2018-07-30T01:28:36.349Z,20.54
2018-07-30T01:29:36.333Z,20.54
2018-07-30T01:30:36.318Z,20.49
2018-07-30T01:31:36.303Z,20.43
2018-07-30T01:32:36.287Z,20.43
2018-07-30T01:33:36.275Z,20.42
2018-07-30T01:34:36.260Z,20.38
2018-07-30T01:35:36.242Z,20.35
2018-07-30T01:36:36.227Z,20.34
2018-07-30T01:37:36.211Z,20.38
2018-07-30T01:38:36.194Z,20.34
2018-07-30T01:39:36.181Z,20.38
2018-07-30T01:40:36.165Z,20.39
2018-07-30T01:41:36.149Z,20.35
2018-07-30T01:42:36.135Z,20.35
2018-07-30T01:43:36.118Z,20.31
2018-07-30T01:44:36.104Z,20.23
2018-07-30T01:45:36.089Z,20.27
2018-07-30T01:46:36.072Z,20.20
2018-07-30T01:47:36.056Z,20.20
2018-07-30T01:48:36.043Z,20.20
2018-07-30T01:49:36.025Z,20.25
2018-07-30T01:50:36.009Z,20.21
2018-07-30T01:51:35.995Z,20.21
2018-07-30T01:52:35.978Z,20.28
2018-07-30T01:53:35.964Z,20.24
2018-07-30T01:54:35.948Z,20.24
2018-07-30T01:55:35.934Z,20.28
2018-07-30T01:56:35.916Z,20.30
2018-07-30T01:57:35.901Z,20.27
2018-07-30T01:58:35.885Z,20.25
2018-07-30T01:59:35.869Z,20.28
2018-07-30T02:00:35.853Z,20.28
2018-07-30T02:01:35.840Z,20.33
2018-07-30T02:02:35.822Z,20.25
2018-07-30T02:03:35.806Z,20.20
2018-07-30T02:04:35.791Z,20.24
2018-07-30T02:05:35.779Z,20.21
2018-07-30T02:06:35.758Z,20.18
2018-07-30T02:07:35.743Z,20.24
2018-07-30T02:08:35.728Z,20.27
2018-07-30T02:09:35.712Z,20.21
2018-07-30T02:10:35.697Z,20.21
2018-07-30T02:11:35.679Z,20.24
2018-07-30T02:12:35.664Z,20.23
2018-07-30T02:13:35.653Z,20.12
2018-07-30T02:14:35.631Z,20.15
2018-07-30T02:15:35.616Z,20.06
2018-07-30T02:16:35.601Z,20.05
2018-07-30T02:17:35.587Z,20.05
2018-07-30T02:18:35.567Z,20.06
2018-07-30T02:19:35.553Z,19.98
2018-07-30T02:20:35.537Z,19.88
2018-07-30T02:21:35.522Z,19.90
2018-07-30T02:22:35.505Z,19.84
2018-07-30T02:23:35.489Z,19.91
2018-07-30T02:24:35.473Z,19.83
2018-07-30T02:25:35.458Z,19.88
2018-07-30T02:26:35.440Z,19.75
2018-07-30T02:27:35.428Z,19.80
2018-07-30T02:28:35.409Z,19.86
2018-07-30T02:29:35.393Z,19.78
2018-07-30T02:30:35.379Z,19.70
2018-07-30T02:31:35.361Z,19.70
2018-07-30T02:32:35.346Z,19.66
2018-07-30T02:33:35.331Z,19.65
2018-07-30T02:34:35.316Z,19.63
2018-07-30T02:35:35.297Z,19.63
2018-07-30T02:36:35.281Z,19.55
2018-07-30T02:37:35.265Z,19.54
2018-07-30T02:38:35.249Z,19.51
2018-07-30T02:39:35.235Z,19.53
2018-07-30T02:40:35.217Z,19.51
2018-07-30T02:41:35.202Z,19.51
2018-07-30T02:42:35.189Z,19.53
2018-07-30T02:43:35.169Z,19.55
2018-07-30T02:44:35.155Z,19.43
2018-07-30T02:45:35.138Z,19.46
2018-07-30T02:46:35.123Z,19.42
2018-07-30T02:47:35.105Z,19.53
2018-07-30T02:48:35.090Z,19.53
2018-07-30T02:49:35.073Z,19.51
2018-07-30T02:50:35.058Z,19.42
2018-07-30T02:51:35.043Z,19.40
2018-07-30T02:52:35.027Z,19.43
2018-07-30T02:53:35.009Z,19.47
2018-07-30T02:54:34.992Z,19.58
2018-07-30T02:55:34.979Z,19.57
2018-07-30T02:56:34.960Z,19.50
2018-07-30T02:57:34.983Z,19.43
2018-07-30T02:58:34.928Z,19.38
2018-07-30T02:59:34.912Z,19.46
2018-07-30T03:00:34.896Z,19.39
2018-07-30T03:01:34.881Z,19.43
2018-07-30T03:02:34.864Z,19.42
2018-07-30T03:03:34.847Z,19.39
2018-07-30T03:04:34.833Z,19.40
2018-07-30T03:05:34.817Z,19.38
2018-07-30T03:06:34.800Z,19.40
2018-07-30T03:07:34.784Z,19.39
2018-07-30T03:08:34.770Z,19.42
2018-07-30T03:09:34.751Z,19.38
2018-07-30T03:10:34.735Z,19.33
2018-07-30T03:11:34.718Z,19.36
2018-07-30T03:12:34.703Z,19.29
2018-07-30T03:13:34.685Z,19.42
2018-07-30T03:14:34.669Z,19.39
2018-07-30T03:15:34.658Z,19.36
2018-07-30T03:16:34.638Z,19.32
2018-07-30T03:17:34.622Z,19.36
2018-07-30T03:18:34.606Z,19.33
2018-07-30T03:19:34.589Z,19.29
2018-07-30T03:20:34.572Z,19.32
2018-07-30T03:21:34.558Z,19.36
2018-07-30T03:22:34.539Z,19.33
2018-07-30T03:23:34.524Z,19.23
2018-07-30T03:24:34.508Z,19.24
2018-07-30T03:25:34.492Z,19.28
2018-07-30T03:26:34.473Z,19.35
2018-07-30T03:27:34.459Z,19.33
2018-07-30T03:28:34.441Z,19.20
2018-07-30T03:29:34.427Z,19.35
2018-07-30T03:30:35.160Z,19.33
2018-07-30T03:31:34.392Z,19.40
2018-07-30T03:32:34.376Z,19.43
2018-07-30T03:33:34.360Z,19.39
2018-07-30T03:34:34.344Z,19.40
2018-07-30T03:35:34.327Z,19.43
2018-07-30T03:36:34.312Z,19.43
2018-07-30T03:37:34.296Z,19.40
2018-07-30T03:38:34.278Z,19.42
2018-07-30T03:39:34.264Z,19.42
2018-07-30T03:40:34.246Z,19.55
2018-07-30T03:41:35.680Z,19.53
2018-07-30T03:42:34.213Z,19.61
2018-07-30T03:43:34.199Z,19.51
2018-07-30T03:44:34.179Z,19.55
2018-07-30T03:45:34.165Z,19.48
2018-07-30T03:46:34.149Z,19.46
2018-07-30T03:47:34.131Z,19.48
2018-07-30T03:48:34.115Z,19.53
2018-07-30T03:49:34.097Z,19.61
2018-07-30T03:50:34.083Z,19.50
2018-07-30T03:51:34.064Z,19.48
2018-07-30T03:52:34.049Z,19.46
2018-07-30T03:53:34.036Z,19.43
2018-07-30T03:54:34.022Z,19.40
2018-07-30T03:55:33.999Z,19.42
2018-07-30T03:56:33.982Z,19.43
2018-07-30T03:57:33.966Z,19.43
2018-07-30T03:58:33.949Z,19.39
2018-07-30T03:59:33.938Z,19.46
2018-07-30T04:00:33.916Z,19.40
2018-07-30T04:01:33.900Z,19.47
2018-07-30T04:02:33.882Z,19.39
2018-07-30T04:03:33.866Z,19.40
2018-07-30T04:04:33.850Z,19.40
2018-07-30T04:05:33.834Z,19.40
2018-07-30T04:06:35.318Z,19.28
2018-07-30T04:07:33.802Z,19.29
2018-07-30T04:08:33.784Z,19.33
2018-07-30T04:09:33.769Z,19.33
2018-07-30T04:10:33.751Z,19.21
2018-07-30T04:11:33.734Z,19.21
2018-07-30T04:12:33.719Z,19.33
2018-07-30T04:13:33.703Z,19.32
2018-07-30T04:14:33.689Z,19.29
2018-07-30T04:15:33.668Z,19.36
2018-07-30T04:16:33.653Z,19.35
2018-07-30T04:17:33.639Z,19.33
2018-07-30T04:18:33.619Z,19.33
2018-07-30T04:19:33.604Z,19.32
2018-07-30T04:20:33.588Z,19.38
2018-07-30T04:21:33.571Z,19.33
2018-07-30T04:22:33.558Z,19.35
2018-07-30T04:23:33.538Z,19.36
2018-07-30T04:24:33.521Z,19.28
2018-07-30T04:25:33.506Z,19.20
2018-07-30T04:26:33.488Z,19.35
2018-07-30T04:27:33.472Z,19.33
2018-07-30T04:28:33.455Z,19.39
2018-07-30T04:29:33.441Z,19.28
2018-07-30T04:30:33.423Z,19.35
2018-07-30T04:31:33.409Z,19.32
2018-07-30T04:32:33.394Z,19.28
2018-07-30T04:33:33.375Z,19.39
2018-07-30T04:34:33.358Z,19.29
2018-07-30T04:35:33.344Z,19.36
2018-07-30T04:36:33.325Z,19.35
2018-07-30T04:37:33.309Z,19.39
2018-07-30T04:38:33.292Z,19.35
2018-07-30T04:39:33.276Z,19.28
2018-07-30T04:40:33.259Z,19.33
2018-07-30T04:41:33.243Z,19.21
2018-07-30T04:42:33.227Z,19.25
2018-07-30T04:43:33.210Z,19.17
2018-07-30T04:44:33.195Z,19.18
2018-07-30T04:45:33.178Z,19.21
2018-07-30T04:46:33.161Z,19.24
2018-07-30T04:47:33.144Z,19.23
2018-07-30T04:48:33.129Z,19.20
2018-07-30T04:49:33.112Z,19.31
2018-07-30T04:50:33.094Z,19.32
2018-07-30T04:51:33.080Z,19.38
2018-07-30T04:52:33.063Z,19.29
2018-07-30T04:53:33.048Z,19.32
2018-07-30T04:54:33.030Z,19.33
2018-07-30T04:55:33.014Z,19.39
2018-07-30T04:56:32.998Z,19.35
2018-07-30T04:57:32.981Z,19.29
2018-07-30T04:58:32.969Z,19.38
2018-07-30T04:59:32.949Z,19.33
2018-07-30T05:00:32.939Z,19.39
2018-07-30T05:01:32.918Z,19.42
2018-07-30T05:02:32.899Z,19.40
2018-07-30T05:03:32.884Z,19.55
2018-07-30T05:04:32.866Z,19.53
2018-07-30T05:05:32.852Z,19.60
2018-07-30T05:06:32.833Z,19.68
2018-07-30T05:07:32.819Z,19.72
2018-07-30T05:08:32.803Z,19.69
2018-07-30T05:09:34.290Z,19.73
2018-07-30T05:10:32.770Z,19.79
2018-07-30T05:11:32.754Z,19.79
2018-07-30T05:12:32.741Z,19.75
2018-07-30T05:13:32.722Z,19.84
2018-07-30T05:14:32.705Z,19.83
2018-07-30T05:15:32.689Z,19.90
2018-07-30T05:16:32.673Z,19.87
2018-07-30T05:17:32.656Z,19.84
2018-07-30T05:18:32.640Z,19.79
2018-07-30T05:19:32.657Z,19.86
2018-07-30T05:20:32.608Z,19.87
2018-07-30T05:21:32.593Z,19.86
2018-07-30T05:22:32.575Z,19.87
2018-07-30T05:23:32.559Z,19.84
2018-07-30T05:24:32.545Z,19.93
2018-07-30T05:25:32.586Z,19.97
2018-07-30T05:26:32.511Z,20.02
2018-07-30T05:27:32.495Z,20.18
2018-07-30T05:28:32.478Z,20.25
2018-07-30T05:29:32.464Z,20.27
2018-07-30T05:30:32.447Z,20.38
2018-07-30T05:31:32.458Z,20.35
2018-07-30T05:32:32.415Z,20.35
2018-07-30T05:33:32.400Z,20.34
2018-07-30T05:34:32.383Z,20.50
2018-07-30T05:35:32.369Z,20.47
2018-07-30T05:36:32.352Z,20.53
2018-07-30T05:37:32.335Z,20.56
2018-07-30T05:38:32.318Z,20.66
2018-07-30T05:39:32.303Z,20.51
2018-07-30T05:40:32.288Z,20.50
2018-07-30T05:41:32.273Z,20.66
2018-07-30T05:42:33.758Z,20.66
2018-07-30T05:43:32.241Z,20.65
2018-07-30T05:44:32.226Z,20.64
2018-07-30T05:45:32.210Z,20.71
2018-07-30T05:46:32.193Z,20.71
2018-07-30T05:47:32.181Z,20.71
2018-07-30T05:48:32.162Z,20.84
2018-07-30T05:49:32.146Z,20.83
2018-07-30T05:50:32.130Z,20.83
2018-07-30T05:51:32.116Z,20.87
2018-07-30T05:52:32.099Z,20.99
2018-07-30T05:53:32.083Z,20.95
2018-07-30T05:54:32.068Z,20.96
2018-07-30T05:55:32.052Z,21.04
2018-07-30T05:56:32.040Z,21.02
2018-07-30T05:57:32.024Z,21.09
2018-07-30T05:58:32.005Z,21.16
2018-07-30T05:59:32.076Z,21.06
2018-07-30T06:00:31.976Z,21.24
2018-07-30T06:01:31.959Z,21.38
2018-07-30T06:02:31.944Z,21.36
2018-07-30T06:03:31.929Z,21.39
2018-07-30T06:04:31.914Z,21.54
2018-07-30T06:05:31.922Z,21.57
2018-07-30T06:06:31.883Z,21.69
2018-07-30T06:07:31.868Z,21.82
2018-07-30T06:08:31.861Z,21.75
2018-07-30T06:09:31.874Z,21.94
2018-07-30T06:10:32.573Z,21.91
2018-07-30T06:11:31.807Z,21.91
2018-07-30T06:12:31.791Z,21.90
2018-07-30T06:13:31.775Z,21.88
2018-07-30T06:14:31.759Z,21.90
2018-07-30T06:15:31.745Z,22.09
2018-07-30T06:16:31.733Z,22.07
2018-07-30T06:17:31.714Z,22.16
2018-07-30T06:18:31.698Z,22.02
2018-07-30T06:19:31.684Z,22.14
2018-07-30T06:20:31.668Z,22.16
2018-07-30T06:21:31.654Z,22.23
2018-07-30T06:22:31.638Z,22.25
2018-07-30T06:23:31.627Z,22.31
2018-07-30T06:24:31.608Z,22.32
2018-07-30T06:25:31.592Z,22.27
2018-07-30T06:26:31.637Z,22.43
2018-07-30T06:27:31.565Z,22.46
2018-07-30T06:28:31.548Z,22.34
2018-07-30T06:29:31.545Z,22.52
2018-07-30T06:30:31.517Z,22.46
2018-07-30T06:31:31.501Z,22.43
2018-07-30T06:32:32.989Z,22.56
2018-07-30T06:33:31.471Z,22.46
2018-07-30T06:34:31.459Z,22.57
2018-07-30T06:35:31.441Z,22.59
2018-07-30T06:36:31.427Z,22.65
2018-07-30T06:37:31.414Z,22.72
2018-07-30T06:38:32.217Z,22.74
2018-07-30T06:39:31.381Z,22.72
2018-07-30T06:40:31.367Z,22.87
2018-07-30T06:41:31.352Z,22.90
2018-07-30T06:42:31.336Z,22.90
2018-07-30T06:43:31.324Z,22.94
2018-07-30T06:44:31.308Z,22.87
2018-07-30T06:45:31.292Z,23.02
2018-07-30T06:46:31.279Z,23.02
2018-07-30T06:47:31.263Z,23.04
2018-07-30T06:48:31.249Z,23.15
2018-07-30T06:49:31.235Z,23.15
2018-07-30T06:50:31.218Z,23.09
2018-07-30T06:51:31.204Z,23.19
2018-07-30T06:52:31.189Z,23.27
2018-07-30T06:53:31.176Z,23.19
2018-07-30T06:54:31.160Z,23.29
2018-07-30T06:55:31.145Z,23.29
2018-07-30T06:56:31.132Z,23.29
2018-07-30T06:57:31.117Z,23.35
2018-07-30T06:58:31.102Z,23.39
2018-07-30T06:59:31.089Z,23.52
2018-07-30T07:00:31.077Z,23.55
2018-07-30T07:01:31.061Z,23.60
2018-07-30T07:02:31.045Z,23.61
2018-07-30T07:03:31.041Z,23.67
2018-07-30T07:04:31.017Z,23.57
2018-07-30T07:05:31.003Z,23.71
2018-07-30T07:06:30.988Z,23.70
2018-07-30T07:07:30.974Z,23.71
2018-07-30T07:08:30.962Z,23.68
2018-07-30T07:09:30.944Z,23.76
2018-07-30T07:10:30.929Z,23.80
2018-07-30T07:11:30.916Z,23.83
2018-07-30T07:12:30.902Z,23.95
2018-07-30T07:13:30.889Z,23.97
2018-07-30T07:14:30.874Z,24.04
2018-07-30T07:15:30.861Z,24.12
2018-07-30T07:16:30.863Z,24.14
2018-07-30T07:17:30.834Z,24.07
2018-07-30T07:18:30.816Z,24.13
2018-07-30T07:19:30.802Z,24.24
2018-07-30T07:20:30.788Z,24.10
2018-07-30T07:21:30.779Z,24.16
2018-07-30T07:22:30.760Z,24.23
2018-07-30T07:23:30.747Z,24.17
2018-07-30T07:24:30.732Z,24.17
2018-07-30T07:25:30.719Z,24.27
2018-07-30T07:26:30.705Z,24.34
2018-07-30T07:27:30.690Z,24.32
2018-07-30T07:28:30.679Z,24.38
2018-07-30T07:29:30.662Z,24.45
2018-07-30T07:30:30.649Z,24.52
2018-07-30T07:31:30.635Z,24.44
2018-07-30T07:32:30.620Z,24.37
2018-07-30T07:33:30.606Z,24.37
2018-07-30T07:34:30.593Z,24.49
2018-07-30T07:35:30.580Z,24.64
2018-07-30T07:36:30.566Z,24.79
2018-07-30T07:37:30.551Z,24.80
2018-07-30T07:38:30.537Z,24.80
2018-07-30T07:39:30.524Z,24.88
2018-07-30T07:40:30.511Z,24.90
2018-07-30T07:41:30.497Z,24.94
2018-07-30T07:42:30.483Z,25.02
2018-07-30T07:43:30.469Z,25.07
2018-07-30T07:44:30.455Z,25.07
2018-07-30T07:45:30.442Z,25.28
2018-07-30T07:46:30.428Z,25.25
2018-07-30T07:47:30.413Z,25.34
2018-07-30T07:48:30.401Z,25.22
2018-07-30T07:49:30.388Z,25.32
2018-07-30T07:50:30.469Z,25.24
2018-07-30T07:51:30.360Z,25.30
2018-07-30T07:52:30.345Z,25.22
2018-07-30T07:53:30.333Z,25.43
2018-07-30T07:54:30.319Z,25.52
2018-07-30T07:55:30.306Z,25.37
2018-07-30T07:56:30.293Z,25.38
2018-07-30T07:57:30.278Z,25.43
2018-07-30T07:58:30.263Z,25.49
2018-07-30T07:59:30.250Z,25.54
2018-07-30T08:00:30.237Z,25.61
2018-07-30T08:01:30.225Z,25.56
2018-07-30T08:02:30.210Z,25.59
2018-07-30T08:03:30.200Z,25.61
2018-07-30T08:04:30.183Z,25.57
2018-07-30T08:05:30.170Z,25.67
2018-07-30T08:06:30.158Z,25.64
2018-07-30T08:07:30.143Z,25.69
2018-07-30T08:08:30.130Z,25.82
2018-07-30T08:09:30.117Z,25.94
2018-07-30T08:10:30.103Z,26.06
2018-07-30T08:11:30.091Z,26.06
2018-07-30T08:12:30.078Z,26.18
2018-07-30T08:13:30.064Z,26.25
2018-07-30T08:14:30.051Z,26.27
2018-07-30T08:15:30.037Z,26.39
2018-07-30T08:16:30.026Z,26.42
2018-07-30T08:17:30.012Z,26.47
2018-07-30T08:18:29.998Z,26.46
2018-07-30T08:19:29.985Z,26.59
2018-07-30T08:20:29.972Z,26.59
2018-07-30T08:21:29.958Z,26.72
2018-07-30T08:22:29.944Z,26.68
2018-07-30T08:23:29.931Z,26.77
2018-07-30T08:24:29.919Z,26.74
2018-07-30T08:25:29.907Z,26.79
2018-07-30T08:26:29.892Z,26.79
2018-07-30T08:27:29.880Z,26.83
2018-07-30T08:28:29.867Z,26.79
2018-07-30T08:29:30.606Z,26.79
2018-07-30T08:30:29.841Z,26.84
2018-07-30T08:31:29.829Z,26.91
2018-07-30T08:32:29.816Z,26.89
2018-07-30T08:33:29.806Z,26.86
2018-07-30T08:34:29.790Z,26.83
2018-07-30T08:35:29.777Z,26.83
2018-07-30T08:36:29.764Z,26.96
2018-07-30T08:37:29.752Z,27.06
2018-07-30T08:38:29.745Z,27.19
2018-07-30T08:39:29.726Z,27.13
2018-07-30T08:40:30.465Z,27.17
2018-07-30T08:41:29.702Z,27.17
2018-07-30T08:42:29.688Z,27.20
2018-07-30T08:43:29.676Z,27.26
2018-07-30T08:44:29.664Z,27.32
2018-07-30T08:45:29.651Z,27.29
2018-07-30T08:46:29.639Z,27.35
2018-07-30T08:47:29.626Z,27.42
2018-07-30T08:48:29.613Z,27.48
2018-07-30T08:49:29.601Z,27.53
2018-07-30T08:50:29.590Z,27.62
2018-07-30T08:51:31.079Z,27.66
2018-07-30T08:52:29.564Z,27.70
2018-07-30T08:53:29.553Z,27.77
2018-07-30T08:54:29.539Z,27.80
2018-07-30T08:55:29.528Z,27.70
2018-07-30T08:56:29.573Z,27.73
2018-07-30T08:57:29.502Z,27.76
2018-07-30T08:58:29.489Z,27.70
2018-07-30T08:59:29.480Z,27.69
2018-07-30T09:00:29.465Z,27.67
2018-07-30T09:01:29.457Z,27.86
2018-07-30T09:02:29.440Z,27.76
2018-07-30T09:03:29.428Z,27.89
2018-07-30T09:04:29.418Z,28.03
2018-07-30T09:05:29.405Z,28.13
2018-07-30T09:06:29.392Z,28.29
2018-07-30T09:07:29.380Z,28.22
2018-07-30T09:08:30.123Z,28.07
2018-07-30T09:09:29.357Z,27.95
2018-07-30T09:10:29.346Z,28.06
2018-07-30T09:11:29.331Z,28.06
2018-07-30T09:12:29.404Z,28.16
2018-07-30T09:13:29.309Z,28.03
2018-07-30T09:14:29.296Z,28.19
2018-07-30T09:15:29.285Z,28.29
2018-07-30T09:16:29.271Z,28.48
2018-07-30T09:17:29.261Z,28.43
2018-07-30T09:18:29.249Z,28.44
2018-07-30T09:19:29.237Z,28.40
2018-07-30T09:20:29.225Z,28.54
2018-07-30T09:21:29.212Z,28.54
2018-07-30T09:22:29.200Z,28.72
2018-07-30T09:23:29.189Z,28.85
2018-07-30T09:24:29.176Z,28.93
2018-07-30T09:25:29.166Z,28.85
2018-07-30T09:26:29.155Z,28.70
2018-07-30T09:27:29.142Z,28.66
2018-07-30T09:28:29.131Z,28.43
2018-07-30T09:29:29.119Z,28.38
2018-07-30T09:30:29.106Z,28.53
2018-07-30T09:31:29.095Z,28.65
2018-07-30T09:32:29.083Z,28.73
2018-07-30T09:33:29.071Z,28.82
2018-07-30T09:34:29.058Z,28.84
2018-07-30T09:35:29.047Z,28.90
2018-07-30T09:36:29.036Z,29.00
2018-07-30T09:37:29.024Z,28.90
2018-07-30T09:38:29.013Z,28.81
2018-07-30T09:39:29.037Z,28.87
2018-07-30T09:40:28.999Z,28.85
2018-07-30T09:41:28.978Z,28.82
2018-07-30T09:42:28.967Z,28.84
2018-07-30T09:43:28.956Z,28.66
2018-07-30T09:44:28.949Z,28.77
2018-07-30T09:45:28.936Z,28.78
2018-07-30T09:46:28.921Z,28.82
2018-07-30T09:47:28.910Z,28.84
2018-07-30T09:48:28.899Z,29.03
2018-07-30T09:49:28.886Z,29.15
2018-07-30T09:50:28.988Z,29.22
2018-07-30T09:51:28.865Z,29.16
2018-07-30T09:52:28.853Z,29.13
2018-07-30T09:53:28.841Z,29.19
2018-07-30T09:54:28.830Z,29.20
2018-07-30T09:55:29.569Z,29.31
2018-07-30T09:56:28.808Z,29.37
2018-07-30T09:57:28.796Z,29.40
2018-07-30T09:58:28.784Z,29.43
2018-07-30T09:59:28.773Z,29.45
2018-07-30T10:00:28.762Z,29.59
2018-07-30T10:01:28.754Z,29.62
2018-07-30T10:02:28.740Z,29.38
2018-07-30T10:03:28.728Z,29.44
2018-07-30T10:04:28.723Z,29.56
2018-07-30T10:05:28.708Z,29.57
2018-07-30T10:06:28.695Z,29.71
2018-07-30T10:07:28.712Z,29.78
2018-07-30T10:08:28.674Z,29.84
2018-07-30T10:09:28.664Z,29.96
2018-07-30T10:10:28.652Z,29.90
2018-07-30T10:11:28.641Z,29.90
2018-07-30T10:12:28.630Z,29.90
2018-07-30T10:13:28.644Z,30.03
2018-07-30T10:14:28.608Z,30.02
2018-07-30T10:15:28.596Z,30.05
2018-07-30T10:16:28.588Z,30.14
2018-07-30T10:17:28.578Z,30.16
2018-07-30T10:18:28.564Z,30.31
2018-07-30T10:19:28.554Z,30.33
2018-07-30T10:20:28.543Z,30.23
2018-07-30T10:21:28.531Z,30.14
2018-07-30T10:22:28.520Z,30.23
2018-07-30T10:23:28.511Z,30.29
2018-07-30T10:24:28.499Z,30.38
2018-07-30T10:25:28.488Z,30.56
2018-07-30T10:26:28.477Z,30.65
2018-07-30T10:27:29.968Z,30.64
2018-07-30T10:28:28.457Z,30.47
2018-07-30T10:29:28.447Z,30.49
2018-07-30T10:30:28.437Z,30.61
2018-07-30T10:31:28.425Z,30.65
2018-07-30T10:32:28.417Z,30.75
2018-07-30T10:33:29.157Z,30.59
2018-07-30T10:34:28.403Z,30.62
2018-07-30T10:35:28.384Z,30.50
2018-07-30T10:36:28.373Z,30.49
2018-07-30T10:37:28.366Z,30.38
2018-07-30T10:38:28.352Z,30.30
2018-07-30T10:39:28.342Z,30.33
2018-07-30T10:40:28.332Z,30.31
2018-07-30T10:41:28.323Z,29.99
2018-07-30T10:42:28.312Z,29.96
2018-07-30T10:43:28.302Z,30.08
2018-07-30T10:44:28.290Z,30.16
2018-07-30T10:45:28.281Z,30.19
2018-07-30T10:46:28.354Z,30.34
2018-07-30T10:47:28.259Z,30.34
2018-07-30T10:48:28.269Z,30.43
2018-07-30T10:49:28.240Z,30.56
2018-07-30T10:50:28.230Z,30.50
2018-07-30T10:51:28.218Z,30.46
2018-07-30T10:52:28.208Z,30.47
2018-07-30T10:53:28.197Z,30.64
2018-07-30T10:54:28.187Z,30.61
2018-07-30T10:55:28.177Z,30.81
2018-07-30T10:56:28.167Z,30.74
2018-07-30T10:57:28.157Z,30.76
2018-07-30T10:58:28.146Z,30.90
2018-07-30T10:59:28.135Z,31.08
2018-07-30T11:00:28.126Z,31.09
2018-07-30T11:01:28.117Z,31.24
2018-07-30T11:02:28.105Z,31.35
2018-07-30T11:03:28.094Z,31.23
2018-07-30T11:04:28.087Z,31.24
2018-07-30T11:05:28.074Z,31.18
2018-07-30T11:06:28.064Z,31.13
2018-07-30T11:07:28.053Z,30.94
2018-07-30T11:08:28.047Z,30.90
2018-07-30T11:09:28.059Z,30.98
2018-07-30T11:10:28.024Z,30.99
2018-07-30T11:11:28.016Z,30.86
2018-07-30T11:12:28.003Z,30.59
2018-07-30T11:13:28.003Z,30.78
2018-07-30T11:14:27.983Z,30.67
2018-07-30T11:15:27.972Z,30.57
2018-07-30T11:16:27.963Z,30.74
2018-07-30T11:17:27.952Z,30.76
2018-07-30T11:18:27.943Z,30.78
2018-07-30T11:19:27.932Z,30.72
2018-07-30T11:20:27.927Z,30.59
2018-07-30T11:21:27.919Z,30.71
2018-07-30T11:22:27.902Z,30.67
2018-07-30T11:23:27.893Z,30.68
2018-07-30T11:24:27.882Z,30.65
2018-07-30T11:25:27.997Z,30.75
2018-07-30T11:26:27.861Z,30.89
2018-07-30T11:27:27.852Z,31.04
2018-07-30T11:28:27.841Z,31.06
2018-07-30T11:29:27.831Z,31.20
2018-07-30T11:30:27.820Z,31.35
2018-07-30T11:31:27.810Z,31.36
2018-07-30T11:32:27.800Z,31.55
2018-07-30T11:33:27.846Z,31.60
2018-07-30T11:34:27.783Z,31.55
2018-07-30T11:35:27.772Z,31.64
2018-07-30T11:36:27.761Z,31.54
2018-07-30T11:37:27.751Z,31.54
2018-07-30T11:38:27.742Z,31.28
2018-07-30T11:39:27.731Z,31.46
2018-07-30T11:40:27.721Z,31.50
2018-07-30T11:41:27.713Z,31.60
2018-07-30T11:42:27.701Z,31.45
2018-07-30T11:43:27.691Z,31.45
2018-07-30T11:44:27.684Z,31.49
2018-07-30T11:45:27.672Z,31.48
2018-07-30T11:46:27.661Z,31.50
2018-07-30T11:47:27.651Z,31.54
2018-07-30T11:48:27.712Z,31.39
2018-07-30T11:49:27.634Z,31.43
2018-07-30T11:50:27.621Z,31.53
2018-07-30T11:51:27.613Z,31.46
2018-07-30T11:52:27.604Z,31.35
2018-07-30T11:53:27.606Z,31.40
2018-07-30T11:54:29.125Z,31.64
2018-07-30T11:55:27.576Z,31.30
2018-07-30T11:56:27.564Z,31.04
2018-07-30T11:57:27.554Z,31.12
2018-07-30T11:58:27.543Z,30.99
2018-07-30T11:59:27.536Z,30.98
2018-07-30T12:00:27.525Z,31.01
2018-07-30T12:01:27.648Z,30.87
2018-07-30T12:02:27.505Z,30.99
2018-07-30T12:03:27.497Z,31.11
2018-07-30T12:04:27.486Z,31.23
2018-07-30T12:05:27.476Z,31.50
2018-07-30T12:06:27.465Z,31.72
2018-07-30T12:07:27.455Z,31.80
2018-07-30T12:08:27.446Z,31.87
2018-07-30T12:09:27.437Z,31.99
2018-07-30T12:10:27.426Z,32.18
2018-07-30T12:11:27.417Z,32.10
2018-07-30T12:12:27.407Z,32.24
2018-07-30T12:13:27.432Z,32.35
2018-07-30T12:14:27.388Z,32.21
2018-07-30T12:15:27.379Z,32.14
2018-07-30T12:16:27.370Z,31.99
2018-07-30T12:17:27.361Z,31.99
2018-07-30T12:18:27.351Z,31.79
2018-07-30T12:19:27.341Z,31.77
2018-07-30T12:20:27.332Z,31.77
2018-07-30T12:21:27.322Z,31.77
2018-07-30T12:22:28.062Z,31.68
2018-07-30T12:23:27.306Z,31.70
2018-07-30T12:24:27.294Z,31.76
2018-07-30T12:25:27.283Z,31.70
2018-07-30T12:26:27.288Z,31.67
2018-07-30T12:27:27.265Z,31.88
2018-07-30T12:28:27.255Z,32.03
2018-07-30T12:29:27.247Z,32.15
2018-07-30T12:30:27.456Z,32.20
2018-07-30T12:31:27.226Z,31.79
2018-07-30T12:32:27.217Z,31.92
2018-07-30T12:33:27.209Z,31.87
2018-07-30T12:34:27.198Z,31.80
2018-07-30T12:35:27.188Z,31.55
2018-07-30T12:36:27.210Z,31.77
2018-07-30T12:37:27.177Z,31.88
2018-07-30T12:38:27.160Z,31.77
2018-07-30T12:39:27.151Z,32.02
2018-07-30T12:40:27.143Z,32.15
2018-07-30T12:41:27.142Z,32.13
2018-07-30T12:42:27.123Z,32.03
2018-07-30T12:43:27.114Z,32.05
2018-07-30T12:44:27.103Z,32.05
2018-07-30T12:45:27.095Z,32.06
2018-07-30T12:46:27.086Z,32.06
2018-07-30T12:47:27.075Z,32.13
2018-07-30T12:48:27.066Z,32.15
2018-07-30T12:49:27.057Z,32.25
2018-07-30T12:50:27.089Z,32.52
2018-07-30T12:51:27.039Z,32.70
2018-07-30T12:52:27.028Z,32.71